Accueil
METAR-TAF:

METAR-TAF

Aéroports :

Aéroport international Léon-Mba

Libreville, Gabon

latitude: 00-27N, longitude: 009-25E, altitude: 12 m

Observation

Le bulletin a été fait il y a 19 minutes, à 12:30 UTC
Vent 9 kt de ouest/sud-ouest
Température 31°C
Humidité 71%
Pression 1009 hPa
Visibilité 10 km ou plus
Quelques nuages à une hauteur de 1500 ft

METAR: FOOL 231230Z 24009KT 9999 FEW015 31/25 Q1009 NOSIG

Heure: 13:49 (12:49 UTC)

Prévision

Le bulletin a été fait il y a 1 heure et 49 minutes, à 11:00 UTC
Prévision valable du 23 à 12 UTC au 24 à 18 UTC
Vent 6 kt de sud/sud-ouest
Visibilité 10 km ou plus
Nuages épars à une hauteur de 1300 ft
Quelques nuages à une hauteur de 2000 ft, Cumulonimbus.
Nuages fragmentés à une hauteur de 3500 ft
Probabilité 30% :
Temporairement
du 23 à 17 UTC au 24 à 02 UTC
orage

TAF: FOOL 231100Z 2312/2418 20006KT 9999 SCT013 FEW020CB BKN035 PROB30 TEMPO 2317/2402 TS

Observations et prévisions météorologiques de plus de 4000 aéroports (messages METAR et TAF).

Les stations disponibles sont représentées par des disques jaunes et rouges sur la carte.

Passer la souris dessus pour voir le nom de la station.

Cliquer dessus pour voir les observations et prévisions météorologiques.

Pour changer de carte: cliquez sur les boutons verts avec une croix noire pour zoomer, sur le bouton vert avec un tiret pour effectuer un zoom arrière, ou sur les flèches vertes pour les cartes adjacentes.


METAR-TAF: